Time;durP1;ratioP1;P1;durP2;ratioP2;P2;SDS_P1;SDS_P2;PMS_P1;PMS_P2;Temp;Humidity;BMP_temperature;BMP_pressure;BME280_temperature;BME280_humidity;BME280_pressure;Samples;Min_cycle;Max_cycle;Signal;HPM_P1;HPM_P2
2022/12/23 00:02:59;;;;;;;40.75;15.35;;;;;;;4.92;100.00;97899.28;2189017;81;20989;-58
2022/12/23 00:06:00;;;;;;;44.03;16.75;;;;;;;4.85;100.00;97897.45;2188961;81;21023;-59
2022/12/23 00:09:02;;;;;;;44.13;17.35;;;;;;;4.82;100.00;97895.02;2188926;81;21479;-58
2022/12/23 00:15:06;;;;;;;42.95;16.05;;;;;;;4.74;100.00;97898.50;2172058;81;20980;-58
2022/12/23 00:18:08;;;;;;;41.60;15.93;;;;;;;4.76;100.00;97908.81;2189172;81;21491;-58
2022/12/23 00:21:09;;;;;;;45.78;17.10;;;;;;;4.72;100.00;97908.59;2188708;81;21658;-58
2022/12/23 00:24:11;;;;;;;42.80;17.00;;;;;;;4.71;100.00;97911.63;2188539;81;21590;-58
2022/12/23 00:27:12;;;;;;;41.55;16.37;;;;;;;4.71;100.00;97907.73;2188730;81;21024;-58
2022/12/23 00:30:14;;;;;;;44.13;17.50;;;;;;;4.73;100.00;97908.51;2188719;81;21083;-58
2022/12/23 00:33:15;;;;;;;44.25;17.10;;;;;;;4.69;100.00;97914.30;2188782;81;20976;-58
2022/12/23 00:36:16;;;;;;;42.33;16.52;;;;;;;4.66;100.00;97915.77;2188710;81;20984;-58
2022/12/23 00:45:25;;;;;;;43.38;17.20;;;;;;;4.68;100.00;97918.28;2171936;81;21043;-58
2022/12/23 00:51:29;;;;;;;40.73;17.42;;;;;;;4.74;100.00;97931.42;2171893;81;21051;-58
2022/12/23 00:54:31;;;;;;;40.67;16.35;;;;;;;4.68;100.00;97926.08;2188433;81;20997;-58
2022/12/23 00:57:32;;;;;;;41.20;15.98;;;;;;;4.65;100.00;97922.34;2179897;81;21044;-58
2022/12/23 01:06:40;;;;;;;40.40;16.77;;;;;;;4.52;100.00;97936.41;2161938;82;21001;-58
2022/12/23 01:09:41;;;;;;;38.35;16.37;;;;;;;4.49;100.00;97938.70;2172311;81;21072;-58
2022/12/23 01:12:43;;;;;;;38.93;15.57;;;;;;;4.45;100.00;97937.64;2172426;81;21064;-58
2022/12/23 01:15:45;;;;;;;35.30;13.75;;;;;;;4.43;100.00;97939.48;2172066;82;21334;-58
2022/12/23 01:21:49;;;;;;;38.10;14.18;;;;;;;4.41;100.00;97946.05;2160814;82;20950;-58
2022/12/23 01:24:51;;;;;;;37.53;14.20;;;;;;;4.45;100.00;97943.69;2172135;81;21041;-58
2022/12/23 01:27:52;;;;;;;34.48;13.95;;;;;;;4.48;100.00;97949.16;2172435;82;21052;-58
2022/12/23 01:30:53;;;;;;;33.28;12.10;;;;;;;4.58;100.00;97952.97;2172190;81;21033;-59
2022/12/23 01:33:55;;;;;;;33.00;13.10;;;;;;;4.57;100.00;97943.52;2172216;81;21507;-58
2022/12/23 01:36:56;;;;;;;34.08;12.85;;;;;;;4.57;100.00;97960.41;2172322;81;21037;-58
2022/12/23 01:39:58;;;;;;;33.48;12.35;;;;;;;4.62;100.00;97948.48;2172169;81;21099;-58
2022/12/23 01:43:00;;;;;;;32.03;11.38;;;;;;;4.62;100.00;97951.91;2172017;82;21547;-58
2022/12/23 01:46:01;;;;;;;30.50;11.60;;;;;;;4.56;100.00;97940.53;2172036;81;21092;-58
2022/12/23 01:49:03;;;;;;;30.60;11.20;;;;;;;4.64;100.00;97947.49;2172257;81;21105;-58
2022/12/23 01:52:04;;;;;;;30.85;12.28;;;;;;;4.67;100.00;97946.50;2172187;82;21270;-59
2022/12/23 01:55:06;;;;;;;32.20;11.45;;;;;;;4.68;100.00;97938.62;2171970;81;21492;-59
2022/12/23 01:58:07;;;;;;;29.85;11.18;;;;;;;4.67;100.00;97939.53;2182907;81;21051;-58
2022/12/23 02:04:12;;;;;;;30.57;12.15;;;;;;;4.69;100.00;97938.98;2171771;81;21488;-58
2022/12/23 02:10:17;;;;;;;29.80;12.25;;;;;;;4.71;100.00;97946.70;2171872;81;20972;-58
2022/12/23 02:13:18;;;;;;;28.73;11.20;;;;;;;4.73;100.00;97940.98;2188606;81;21044;-59
2022/12/23 02:16:19;;;;;;;31.27;11.28;;;;;;;4.74;100.00;97949.16;2188980;81;20977;-58
2022/12/23 02:19:21;;;;;;;31.50;12.37;;;;;;;4.68;100.00;97948.16;2188743;81;20976;-59
2022/12/23 02:22:22;;;;;;;30.25;13.22;;;;;;;4.73;100.00;97947.48;2188932;81;21008;-58
2022/12/23 02:25:24;;;;;;;30.25;12.00;;;;;;;4.64;100.00;97955.72;2188744;81;20981;-59
2022/12/23 02:28:25;;;;;;;29.12;10.85;;;;;;;4.63;100.00;97957.48;2188714;81;21535;-58
2022/12/23 02:31:26;;;;;;;31.12;12.00;;;;;;;4.63;100.00;97956.66;2188994;81;21005;-58
2022/12/23 02:34:28;;;;;;;31.68;12.20;;;;;;;4.66;100.00;97956.50;2188685;81;21004;-59
2022/12/23 02:37:29;;;;;;;31.27;12.60;;;;;;;4.63;100.00;97958.79;2188870;81;20987;-58
2022/12/23 02:40:31;;;;;;;31.35;12.28;;;;;;;4.69;100.00;97962.84;2188529;81;20996;-58
2022/12/23 02:43:32;;;;;;;30.17;12.30;;;;;;;4.63;100.00;97961.86;2188963;81;21015;-58
2022/12/23 02:46:34;;;;;;;29.42;12.80;;;;;;;4.63;100.00;97961.86;2188639;81;21389;-59
2022/12/23 02:49:35;;;;;;;30.68;12.47;;;;;;;4.66;100.00;97960.39;2188587;81;21487;-58
2022/12/23 02:52:37;;;;;;;31.50;12.65;;;;;;;4.63;100.00;97962.69;2188675;81;21044;-58
2022/12/23 02:55:38;;;;;;;29.32;13.15;;;;;;;4.82;100.00;97972.97;2188547;81;21054;-58
2022/12/23 02:58:39;;;;;;;30.92;12.43;;;;;;;4.87;100.00;97972.77;2188270;81;20988;-58
2022/12/23 03:01:41;;;;;;;30.40;13.40;;;;;;;4.97;100.00;97977.00;2188600;81;20995;-58
2022/12/23 03:04:43;;;;;;;30.97;13.27;;;;;;;4.77;100.00;97967.19;2188802;81;20988;-58
2022/12/23 03:07:44;;;;;;;31.95;13.10;;;;;;;4.77;100.00;97967.19;2188515;81;21478;-58
2022/12/23 03:10:45;;;;;;;32.38;13.08;;;;;;;4.92;100.00;97977.72;2188594;81;21044;-59
2022/12/23 03:13:47;;;;;;;31.70;13.62;;;;;;;4.91;100.00;97987.25;2188663;81;21110;-59
2022/12/23 03:16:49;;;;;;;32.53;13.60;;;;;;;4.93;100.00;97991.06;2188640;81;21096;-58
2022/12/23 03:19:50;;;;;;;35.60;14.43;;;;;;;4.90;100.00;97997.28;2188874;81;21651;-58
2022/12/23 03:22:51;;;;;;;33.92;14.07;;;;;;;4.91;100.00;97991.15;2188718;81;20965;-58
2022/12/23 03:25:53;;;;;;;31.90;12.80;;;;;;;4.84;100.00;97998.88;2189031;81;20937;-59
2022/12/23 03:28:54;;;;;;;34.10;14.45;;;;;;;4.81;100.00;97985.61;2188770;81;21017;-59
2022/12/23 03:31:56;;;;;;;35.33;13.78;;;;;;;4.78;100.00;97993.53;2188982;81;21527;-59
2022/12/23 03:34:57;;;;;;;31.02;11.88;;;;;;;4.82;100.00;97990.33;2188626;81;21051;-58
2022/12/23 03:37:59;;;;;;;33.40;12.25;;;;;;;4.83;100.00;97992.85;2188740;81;21000;-59
2022/12/23 03:41:00;;;;;;;33.98;12.90;;;;;;;4.75;100.00;97985.89;2188869;81;20941;-58
2022/12/23 03:44:01;;;;;;;30.25;12.37;;;;;;;4.80;100.00;97991.72;2188639;81;21051;-58
2022/12/23 03:47:03;;;;;;;32.93;13.32;;;;;;;4.81;100.00;97990.80;2188658;81;21051;-59
2022/12/23 03:50:05;;;;;;;33.45;13.25;;;;;;;4.76;100.00;97994.08;2188664;81;21040;-58
2022/12/23 03:53:07;;;;;;;33.92;14.28;;;;;;;4.78;100.00;97997.42;2189060;81;21832;-59
2022/12/23 03:56:10;;;;;;;32.10;13.55;;;;;;;4.84;100.00;97997.58;2171501;81;21003;-58
2022/12/23 03:59:11;;;;;;;34.80;14.15;;;;;;;4.88;100.00;97999.58;2175293;81;21055;-59
2022/12/23 04:02:13;;;;;;;30.52;12.78;;;;;;;4.93;100.00;97992.37;2172212;81;20997;-58
2022/12/23 04:05:14;;;;;;;30.02;13.20;;;;;;;5.04;100.00;97993.95;2172289;81;21052;-58
2022/12/23 04:08:16;;;;;;;38.10;17.97;;;;;;;5.08;100.00;97996.78;2172501;82;21029;-58
2022/12/23 04:11:17;;;;;;;37.73;17.07;;;;;;;5.14;100.00;97993.89;2172370;81;21088;-59
2022/12/23 04:14:19;;;;;;;34.98;16.25;;;;;;;5.15;100.00;97996.02;2172264;81;21600;-58
2022/12/23 04:17:21;;;;;;;33.40;14.47;;;;;;;5.14;100.00;97987.39;2171882;81;21069;-58
2022/12/23 04:20:22;;;;;;;35.40;14.40;;;;;;;5.20;100.00;97998.76;2172397;81;21535;-58
2022/12/23 04:23:23;;;;;;;29.02;11.85;;;;;;;5.22;100.00;97995.25;2172103;81;21060;-58
2022/12/23 04:26:25;;;;;;;31.90;13.50;;;;;;;5.17;100.00;97992.42;2172125;81;21068;-58
2022/12/23 04:29:26;;;;;;;34.45;15.70;;;;;;;5.17;100.00;97989.83;2172235;81;21044;-58
2022/12/23 04:32:28;;;;;;;34.38;15.20;;;;;;;5.17;100.00;97983.33;2171690;81;21167;-58
2022/12/23 04:35:29;;;;;;;33.45;14.75;;;;;;;5.13;100.00;97980.94;2172245;81;20972;-59
2022/12/23 04:38:31;;;;;;;39.73;16.70;;;;;;;5.11;100.00;97984.92;2172484;81;20970;-59
2022/12/23 04:41:32;;;;;;;40.10;17.30;;;;;;;5.03;100.00;97981.44;2172374;81;20961;-59
2022/12/23 04:44:34;;;;;;;40.60;18.60;;;;;;;4.95;100.00;97979.68;2172198;81;21023;-58
2022/12/23 04:47:35;;;;;;;40.43;17.50;;;;;;;4.96;100.00;97972.75;2172303;81;21512;-58
2022/12/23 04:50:36;;;;;;;38.05;17.50;;;;;;;5.02;100.00;97974.55;2172487;81;20961;-58
2022/12/23 04:53:38;;;;;;;43.90;18.90;;;;;;;5.05;100.00;97980.52;2172338;81;21626;-58
2022/12/23 04:56:40;;;;;;;39.75;18.02;;;;;;;4.91;100.00;97969.06;2172373;81;21045;-59
2022/12/23 04:59:41;;;;;;;40.35;19.02;;;;;;;4.96;100.00;97980.07;2171950;81;21132;-58
2022/12/23 05:02:42;;;;;;;44.20;20.60;;;;;;;4.97;100.00;97977.00;2172404;81;21000;-58
2022/12/23 05:05:44;;;;;;;41.92;20.05;;;;;;;4.96;100.00;97989.16;2171876;81;21122;-58
2022/12/23 05:08:45;;;;;;;50.45;20.92;;;;;;;5.03;100.00;97988.41;2172002;81;21085;-58
2022/12/23 05:11:47;;;;;;;51.63;22.10;;;;;;;4.96;100.00;97988.34;2172056;82;21088;-58
2022/12/23 05:14:48;;;;;;;45.65;20.20;;;;;;;4.80;100.00;97965.73;2172043;81;21532;-58
2022/12/23 05:17:50;;;;;;;48.52;22.07;;;;;;;4.85;100.00;97986.27;2172208;81;21029;-58
2022/12/23 05:20:51;;;;;;;48.33;21.85;;;;;;;4.81;100.00;97980.84;2172074;81;21041;-58
2022/12/23 05:23:53;;;;;;;47.77;21.93;;;;;;;4.71;100.00;97988.27;2172398;81;20980;-58
2022/12/23 05:26:56;;;;;;;45.48;21.07;;;;;;;4.71;100.00;97988.27;2172026;81;21561;-58
2022/12/23 05:29:57;;;;;;;50.17;22.58;;;;;;;4.66;100.00;97985.91;2161797;82;21001;-58
2022/12/23 05:32:59;;;;;;;48.70;23.05;;;;;;;4.64;100.00;97992.95;2172477;81;21052;-58
2022/12/23 05:36:01;;;;;;;54.95;26.02;;;;;;;4.69;100.00;97988.81;2172192;81;20977;-58
2022/12/23 05:39:02;;;;;;;54.50;28.73;;;;;;;4.65;100.00;97999.80;2172322;81;21033;-58
2022/12/23 05:42:04;;;;;;;71.70;40.45;;;;;;;4.61;100.00;97991.80;2172121;81;21049;-58
2022/12/23 05:45:05;;;;;;;61.63;30.92;;;;;;;4.70;100.00;97993.10;2172396;81;21547;-58
2022/12/23 05:48:06;;;;;;;65.57;40.52;;;;;;;4.63;100.00;97995.16;2172156;81;21017;-58
2022/12/23 05:51:08;;;;;;;53.23;26.30;;;;;;;4.63;100.00;97999.52;2172136;81;21575;-58
2022/12/23 05:54:09;;;;;;;52.23;24.92;;;;;;;4.57;100.00;97989.41;2172117;81;21085;-58
2022/12/23 05:57:11;;;;;;;53.07;25.70;;;;;;;4.60;100.00;97993.19;2172507;81;21540;-58
2022/12/23 06:00:13;;;;;;;56.28;28.25;;;;;;;4.50;100.00;97997.99;2188358;81;21080;-59
2022/12/23 06:03:15;;;;;;;51.75;25.35;;;;;;;4.44;100.00;98005.63;2188615;81;21480;-58
2022/12/23 06:06:16;;;;;;;57.23;27.90;;;;;;;4.43;100.00;98007.83;2188878;81;20987;-58
2022/12/23 06:09:17;;;;;;;56.10;26.37;;;;;;;4.33;100.00;98009.20;2188611;81;20969;-58
2022/12/23 06:12:19;;;;;;;53.42;25.50;;;;;;;4.29;100.00;98014.16;2188837;81;21008;-58
2022/12/23 06:15:20;;;;;;;65.57;30.32;;;;;;;4.21;100.00;98019.73;2188631;81;21023;-58
2022/12/23 06:18:22;;;;;;;55.35;25.77;;;;;;;4.24;100.00;98014.82;2188835;81;21443;-58
2022/12/23 06:21:24;;;;;;;58.75;27.62;;;;;;;4.16;100.00;98016.50;2188444;81;21038;-58
2022/12/23 06:24:25;;;;;;;61.45;29.07;;;;;;;4.21;100.00;98024.92;2188846;81;21043;-58
2022/12/23 06:27:27;;;;;;;53.10;26.52;;;;;;;4.24;100.00;98026.50;2188641;81;21086;-59
2022/12/23 06:30:28;;;;;;;63.15;29.35;;;;;;;4.24;100.00;98032.98;2188632;81;21511;-59
2022/12/23 06:33:30;;;;;;;53.40;26.75;;;;;;;4.26;100.00;98033.77;2188605;81;21036;-58
2022/12/23 06:36:31;;;;;;;58.55;28.17;;;;;;;4.29;100.00;98029.27;2188571;81;21044;-58
2022/12/23 06:39:32;;;;;;;55.52;26.95;;;;;;;4.33;100.00;98028.67;2188684;81;21036;-58
2022/12/23 06:42:34;;;;;;;53.23;25.97;;;;;;;4.31;100.00;98031.78;2188547;81;21037;-58
2022/12/23 06:45:35;;;;;;;53.23;25.70;;;;;;;4.33;100.00;98029.97;2188887;81;20945;-58
2022/12/23 06:48:37;;;;;;;54.97;26.13;;;;;;;4.33;100.00;98027.37;2188792;81;21083;-59
2022/12/23 06:51:38;;;;;;;56.10;27.85;;;;;;;4.34;100.00;98028.59;2188899;81;21733;-58
2022/12/23 06:54:40;;;;;;;53.00;28.38;;;;;;;4.34;100.00;98021.27;2188853;81;20965;-58
2022/12/23 06:57:41;;;;;;;58.17;28.32;;;;;;;4.38;100.00;98015.45;2188701;81;21008;-59
2022/12/23 07:00:43;;;;;;;53.50;27.85;;;;;;;4.39;100.00;98017.98;2189058;81;21028;-59
2022/12/23 07:03:44;;;;;;;58.23;28.90;;;;;;;4.44;100.00;98015.15;2188731;81;21015;-58
2022/12/23 07:06:46;;;;;;;52.88;24.47;;;;;;;4.53;100.00;98016.02;2188781;81;20968;-59
2022/12/23 07:09:47;;;;;;;45.55;22.82;;;;;;;4.68;100.00;98009.20;2189033;81;21000;-58
2022/12/23 07:12:48;;;;;;;45.45;23.05;;;;;;;4.76;100.00;98001.88;2188749;81;21023;-58
2022/12/23 07:15:50;;;;;;;46.58;22.93;;;;;;;4.86;100.00;98000.95;2188895;81;21491;-59
2022/12/23 07:18:51;;;;;;;47.15;22.32;;;;;;;4.91;100.00;97997.64;2188893;81;20985;-58
2022/12/23 07:21:53;;;;;;;51.63;24.95;;;;;;;4.96;100.00;97996.14;2188716;81;21035;-58
2022/12/23 07:24:54;;;;;;;52.38;25.82;;;;;;;5.07;100.00;97995.13;2188872;81;20957;-58
2022/12/23 07:27:55;;;;;;;54.15;27.37;;;;;;;5.10;100.00;97994.10;2188759;81;21000;-58
2022/12/23 07:30:57;;;;;;;55.00;26.33;;;;;;;5.17;100.00;97996.32;2188994;81;20988;-58
2022/12/23 07:33:58;;;;;;;47.95;22.80;;;;;;;5.34;100.00;97993.28;2188701;81;21015;-59
2022/12/23 07:37:00;;;;;;;49.90;23.27;;;;;;;5.43;100.00;97990.21;2189233;81;21450;-58
2022/12/23 07:40:02;;;;;;;53.85;25.92;;;;;;;5.54;100.00;97981.81;2188935;81;21690;-58
2022/12/23 07:43:04;;;;;;;51.77;23.83;;;;;;;5.64;100.00;97986.06;2188714;81;21492;-59
2022/12/23 07:46:06;;;;;;;47.48;21.25;;;;;;;5.57;100.00;97982.11;2188951;81;20997;-58
2022/12/23 07:49:08;;;;;;;47.30;21.73;;;;;;;5.57;100.00;97978.22;2188884;81;21585;-58
2022/12/23 07:52:10;;;;;;;46.28;19.75;;;;;;;5.55;100.00;97971.80;2188809;81;21004;-58
2022/12/23 07:55:11;;;;;;;40.25;18.90;;;;;;;5.72;100.00;97973.48;2188716;81;21056;-58
2022/12/23 07:58:13;;;;;;;41.83;18.37;;;;;;;5.80;100.00;97976.95;2188975;81;21005;-58
2022/12/23 08:01:14;;;;;;;41.77;18.23;;;;;;;5.83;100.00;97970.28;2188726;81;21653;-59
2022/12/23 08:04:15;;;;;;;39.23;18.25;;;;;;;5.82;100.00;97972.49;2188746;81;21032;-58
2022/12/23 08:07:17;;;;;;;42.48;18.07;;;;;;;5.81;100.00;97976.87;2188693;81;21106;-59
2022/12/23 08:10:18;;;;;;;42.70;18.25;;;;;;;5.83;100.00;97985.89;2188740;81;20992;-58
2022/12/23 08:13:20;;;;;;;38.80;17.98;;;;;;;5.92;100.00;97973.69;2188670;81;20972;-58
2022/12/23 08:16:21;;;;;;;42.10;18.65;;;;;;;5.91;100.00;97977.20;2189435;81;21498;-58
2022/12/23 08:19:23;;;;;;;46.30;19.93;;;;;;;5.90;100.00;97974.22;2189179;81;21027;-58
2022/12/23 08:22:24;;;;;;;45.50;20.57;;;;;;;5.96;100.00;97969.13;2188317;81;20996;-58
2022/12/23 08:25:26;;;;;;;38.23;17.75;;;;;;;5.97;100.00;97960.41;2188829;81;20988;-58
2022/12/23 08:28:27;;;;;;;41.63;18.70;;;;;;;6.01;100.00;97963.25;2188709;81;21039;-59
2022/12/23 08:31:30;;;;;;;46.87;17.93;;;;;;;6.07;100.00;97959.82;2189199;81;21396;-59
2022/12/23 08:34:32;;;;;;;41.92;16.70;;;;;;;6.13;100.00;97957.81;2188654;81;21519;-58
2022/12/23 08:37:33;;;;;;;34.27;15.23;;;;;;;6.15;100.00;97953.34;2188731;81;20997;-59
2022/12/23 08:40:35;;;;;;;36.03;15.68;;;;;;;6.20;100.00;97952.63;2188679;81;20977;-59
2022/12/23 08:43:36;;;;;;;36.28;15.20;;;;;;;6.23;100.00;97949.41;2188447;81;21023;-58
2022/12/23 08:46:38;;;;;;;33.65;14.05;;;;;;;6.23;100.00;97960.27;2188792;81;21068;-58
2022/12/23 08:49:39;;;;;;;42.45;16.77;;;;;;;6.41;100.00;97954.00;2188790;81;21019;-58
2022/12/23 08:52:41;;;;;;;37.58;15.55;;;;;;;6.39;100.00;97953.27;2188640;81;21003;-58
2022/12/23 08:55:42;;;;;;;40.05;15.40;;;;;;;6.56;100.00;97946.22;2188662;81;21522;-58
2022/12/23 08:58:44;;;;;;;39.63;16.05;;;;;;;6.52;100.00;97942.11;2188527;81;21080;-58
2022/12/23 09:01:46;;;;;;;34.53;14.70;;;;;;;6.64;100.00;97941.40;2188733;81;21567;-58
2022/12/23 09:04:47;;;;;;;37.07;15.03;;;;;;;6.71;100.00;97936.64;2188701;81;21132;-58
2022/12/23 09:07:49;;;;;;;34.70;15.65;;;;;;;6.80;100.00;97930.91;2188647;81;21554;-58
2022/12/23 09:10:50;;;;;;;35.38;15.65;;;;;;;6.90;100.00;97926.80;2188786;81;21003;-58
2022/12/23 09:13:52;;;;;;;41.75;16.55;;;;;;;7.05;100.00;97922.45;2188600;81;21052;-58
2022/12/23 09:16:53;;;;;;;38.53;13.05;;;;;;;7.12;100.00;97912.46;2188768;81;20980;-58
2022/12/23 09:19:55;;;;;;;32.95;12.60;;;;;;;7.23;100.00;97908.73;2188584;81;21066;-59
2022/12/23 09:22:56;;;;;;;33.65;13.30;;;;;;;7.35;100.00;97903.20;2188691;81;20965;-58
2022/12/23 09:25:58;;;;;;;33.42;12.25;;;;;;;7.45;100.00;97899.08;2188629;81;21032;-58
2022/12/23 09:28:59;;;;;;;29.72;11.43;;;;;;;7.48;100.00;97896.75;2188845;81;21471;-58
2022/12/23 09:32:00;;;;;;;28.60;10.50;;;;;;;7.51;100.00;97892.64;2188403;81;21027;-58
2022/12/23 09:35:02;;;;;;;29.23;10.72;;;;;;;7.61;100.00;97895.51;2188595;81;21524;-59
2022/12/23 09:38:03;;;;;;;29.32;10.90;;;;;;;7.74;100.00;97892.95;2188745;81;21013;-59
2022/12/23 09:41:05;;;;;;;27.07;10.18;;;;;;;7.78;100.00;97892.65;2188636;81;21024;-58
2022/12/23 09:44:07;;;;;;;32.67;13.08;;;;;;;7.83;100.00;97888.46;2188272;81;21214;-58
2022/12/23 09:47:09;;;;;;;30.43;13.15;;;;;;;7.88;100.00;97882.94;2188818;81;21056;-58
2022/12/23 09:50:10;;;;;;;30.25;13.38;;;;;;;7.96;100.00;97881.49;2188730;81;21556;-58
2022/12/23 09:53:12;;;;;;;34.88;14.20;;;;;;;7.91;100.00;97878.81;2188830;81;20929;-58
2022/12/23 09:56:13;;;;;;;33.63;13.62;;;;;;;7.89;100.00;97890.66;2188759;81;21036;-59
2022/12/23 09:59:14;;;;;;;35.08;14.95;;;;;;;7.84;100.00;97880.97;2188651;81;21009;-59
2022/12/23 10:02:16;;;;;;;38.02;17.17;;;;;;;7.82;100.00;97885.47;2188638;81;21048;-59
2022/12/23 10:05:17;;;;;;;37.27;16.67;;;;;;;7.75;100.00;97880.28;2188807;81;21103;-58
2022/12/23 10:08:19;;;;;;;36.43;16.93;;;;;;;7.69;100.00;97878.90;2188947;81;21074;-59
2022/12/23 10:11:20;;;;;;;33.95;14.35;;;;;;;7.78;100.00;97873.55;2188836;81;21473;-59
2022/12/23 10:14:22;;;;;;;31.75;11.88;;;;;;;7.89;100.00;97869.78;2188569;81;20972;-59
2022/12/23 10:17:23;;;;;;;30.37;11.30;;;;;;;8.03;100.00;97867.58;2188508;81;21548;-58
2022/12/23 10:20:25;;;;;;;28.05;11.48;;;;;;;8.13;100.00;97863.86;2188730;81;21072;-58
2022/12/23 10:23:26;;;;;;;32.33;12.78;;;;;;;8.22;100.00;97865.05;2188529;81;21064;-59
2022/12/23 10:26:28;;;;;;;43.33;18.85;;;;;;;8.27;100.00;97860.34;2188869;81;21004;-58
2022/12/23 10:29:30;;;;;;;34.90;15.72;;;;;;;8.39;100.00;97854.75;2189374;81;21036;-58
2022/12/23 10:32:31;;;;;;;35.83;17.65;;;;;;;8.47;100.00;97861.16;2188987;81;21491;-58
2022/12/23 10:35:33;;;;;;;36.42;15.95;;;;;;;8.61;100.00;97860.23;2188801;81;20977;-58
2022/12/23 10:38:34;;;;;;;36.13;14.50;;;;;;;8.71;100.00;97859.14;2188796;81;21474;-58
2022/12/23 10:41:37;;;;;;;29.92;12.47;;;;;;;8.91;100.00;97862.17;2189004;81;21025;-58
2022/12/23 10:44:38;;;;;;;29.98;11.25;;;;;;;9.06;100.00;97857.63;2189018;81;21538;-58
2022/12/23 10:47:40;;;;;;;27.07;9.05;;;;;;;9.05;100.00;97858.12;2188848;81;21016;-58
2022/12/23 10:50:44;;;;;;;24.82;9.55;;;;;;;8.91;100.00;97856.94;2188947;81;21024;-58
2022/12/23 10:53:45;;;;;;;28.55;10.48;;;;;;;8.81;100.00;97847.09;2117772;83;21494;-58
2022/12/23 10:56:46;;;;;;;32.25;11.25;;;;;;;8.71;100.00;97851.30;2121477;84;21161;-58
2022/12/23 10:59:48;;;;;;;28.40;9.98;;;;;;;8.59;100.00;97843.83;2117465;84;21136;-58
2022/12/23 11:02:49;;;;;;;32.88;12.35;;;;;;;8.48;100.00;97843.73;2111233;84;20970;-58
2022/12/23 11:05:51;;;;;;;32.35;12.45;;;;;;;8.39;100.00;97845.16;2111118;84;21145;-58
2022/12/23 11:08:53;;;;;;;30.45;11.88;;;;;;;8.29;100.00;97842.80;2111098;84;21005;-58
2022/12/23 11:11:54;;;;;;;31.07;13.13;;;;;;;8.10;100.00;97839.26;2111136;84;21069;-59
2022/12/23 11:14:56;;;;;;;31.00;11.80;;;;;;;8.11;100.00;97840.46;2111246;84;21065;-59
2022/12/23 11:17:57;;;;;;;33.42;12.63;;;;;;;8.08;100.00;97835.92;2111005;84;21052;-58
2022/12/23 11:20:59;;;;;;;30.85;12.53;;;;;;;8.07;100.00;97830.33;2111041;84;21093;-58
2022/12/23 11:24:01;;;;;;;34.50;12.75;;;;;;;8.04;100.00;97827.92;2110995;84;21027;-58
2022/12/23 11:27:02;;;;;;;36.17;14.10;;;;;;;8.00;100.00;97832.50;2111340;84;20970;-58
2022/12/23 11:30:04;;;;;;;38.20;16.02;;;;;;;8.05;100.00;97832.22;2111084;84;20966;-59
2022/12/23 11:33:05;;;;;;;36.58;15.30;;;;;;;8.02;100.00;97828.03;2111088;84;21520;-58
2022/12/23 11:36:07;;;;;;;30.10;12.60;;;;;;;8.08;100.00;97825.48;2111330;84;20993;-58
2022/12/23 11:39:08;;;;;;;28.85;10.88;;;;;;;8.13;100.00;97827.30;2111043;84;21025;-58
2022/12/23 11:42:09;;;;;;;30.57;11.68;;;;;;;8.19;100.00;97827.36;2111194;84;21009;-58
2022/12/23 11:45:11;;;;;;;29.50;11.75;;;;;;;8.18;100.00;97820.00;2111070;84;21068;-59
2022/12/23 11:48:12;;;;;;;30.77;11.68;;;;;;;8.11;100.00;97824.79;2111342;84;21449;-58
2022/12/23 11:51:14;;;;;;;33.15;12.33;;;;;;;8.01;100.00;97822.91;2111100;84;20954;-59
2022/12/23 11:54:15;;;;;;;33.58;11.85;;;;;;;7.96;100.00;97818.00;2111121;84;21544;-58
2022/12/23 11:57:17;;;;;;;32.83;13.58;;;;;;;8.04;100.00;97824.83;2111224;84;21013;-58
2022/12/23 12:00:19;;;;;;;32.70;12.60;;;;;;;8.16;100.00;97821.89;2111191;84;21535;-58
2022/12/23 12:03:21;;;;;;;33.35;11.95;;;;;;;8.15;100.00;97828.87;2111178;84;21012;-58
2022/12/23 12:06:22;;;;;;;32.90;11.78;;;;;;;8.11;100.00;97833.11;2111324;84;21428;-58
2022/12/23 12:09:24;;;;;;;33.63;12.63;;;;;;;8.04;100.00;97831.36;2127528;83;20996;-58
2022/12/23 12:12:25;;;;;;;34.83;12.53;;;;;;;8.00;100.00;97831.67;2127704;84;21713;-59
2022/12/23 12:15:27;;;;;;;53.38;19.50;;;;;;;8.01;100.00;97832.88;2127365;84;21071;-58
2022/12/23 12:18:28;;;;;;;41.40;14.83;;;;;;;8.01;100.00;97834.66;2127429;84;21155;-59
2022/12/23 12:21:30;;;;;;;38.17;13.45;;;;;;;8.04;100.00;97840.50;2127022;84;21103;-59
2022/12/23 12:24:31;;;;;;;34.83;12.90;;;;;;;8.07;100.00;97832.45;2127178;84;21021;-58
2022/12/23 12:27:33;;;;;;;35.38;13.58;;;;;;;8.12;100.00;97838.23;2127208;84;21110;-58
2022/12/23 12:30:34;;;;;;;43.65;15.43;;;;;;;8.08;100.00;97838.53;2127079;83;21065;-58
2022/12/23 12:33:36;;;;;;;37.17;13.85;;;;;;;8.03;100.00;97839.30;2127472;84;21567;-58
2022/12/23 12:36:37;;;;;;;38.63;13.72;;;;;;;8.01;100.00;97836.79;2127350;84;21020;-58
2022/12/23 12:39:39;;;;;;;38.70;14.98;;;;;;;7.90;100.00;97832.74;2127625;83;21531;-58
2022/12/23 12:42:40;;;;;;;38.55;14.73;;;;;;;7.75;100.00;97826.28;2127267;84;20988;-58
2022/12/23 12:45:42;;;;;;;40.95;15.15;;;;;;;7.71;100.00;97826.59;2127576;84;21635;-58
2022/12/23 12:48:44;;;;;;;38.60;15.38;;;;;;;7.69;100.00;97825.39;2126962;84;21112;-59
2022/12/23 12:51:45;;;;;;;33.83;15.35;;;;;;;7.62;100.00;97828.03;2127158;84;21103;-58
2022/12/23 12:54:47;;;;;;;36.23;14.80;;;;;;;7.56;100.00;97827.95;2127298;84;20995;-58
2022/12/23 12:57:48;;;;;;;39.48;16.37;;;;;;;7.52;100.00;97823.87;2127205;84;20986;-58
2022/12/23 13:00:49;;;;;;;36.88;16.27;;;;;;;7.49;100.00;97822.77;2127305;84;21514;-58
2022/12/23 13:03:51;;;;;;;33.83;14.80;;;;;;;7.44;100.00;97826.13;2127125;84;21012;-58
2022/12/23 13:06:52;;;;;;;36.58;15.38;;;;;;;7.72;100.00;97829.10;2127181;84;21582;-58
2022/12/23 13:09:54;;;;;;;35.00;16.10;;;;;;;7.78;100.00;97836.52;2127314;84;21002;-59
2022/12/23 13:12:55;;;;;;;38.90;16.17;;;;;;;7.88;100.00;97831.55;2127146;84;21000;-58
2022/12/23 13:15:56;;;;;;;34.40;14.93;;;;;;;7.89;100.00;97836.31;2127150;84;21012;-58
2022/12/23 13:18:58;;;;;;;38.02;16.80;;;;;;;7.89;100.00;97834.53;2127120;84;21121;-58
2022/12/23 13:22:00;;;;;;;39.50;16.32;;;;;;;7.95;100.00;97830.20;2127046;84;21624;-59
2022/12/23 13:25:01;;;;;;;41.40;17.65;;;;;;;7.93;100.00;97834.70;2126821;84;21088;-59
2022/12/23 13:28:03;;;;;;;50.13;20.93;;;;;;;7.91;100.00;97830.03;2127519;84;21512;-58
2022/12/23 13:31:04;;;;;;;39.75;20.02;;;;;;;7.96;100.00;97837.10;2127290;84;21278;-58
2022/12/23 13:34:06;;;;;;;38.15;17.25;;;;;;;8.01;100.00;97841.19;2127162;84;20989;-58
2022/12/23 13:37:07;;;;;;;33.50;15.47;;;;;;;7.88;100.00;97842.46;2127760;84;21019;-58
2022/12/23 13:40:09;;;;;;;36.07;15.87;;;;;;;7.83;100.00;97841.91;2127460;84;21243;-58
2022/12/23 13:43:11;;;;;;;38.30;16.37;;;;;;;7.84;100.00;97838.38;2127440;83;21051;-58
2022/12/23 13:46:12;;;;;;;35.78;14.80;;;;;;;7.79;100.00;97845.21;2127161;84;21036;-58
2022/12/23 13:49:13;;;;;;;36.68;16.35;;;;;;;7.67;100.00;97842.08;2127158;84;21496;-58
2022/12/23 13:52:15;;;;;;;39.90;16.85;;;;;;;7.68;100.00;97845.06;2127157;83;20993;-58
2022/12/23 13:55:16;;;;;;;38.15;16.00;;;;;;;7.65;100.00;97851.80;2127512;84;21490;-58
2022/12/23 13:58:18;;;;;;;37.13;16.60;;;;;;;7.61;100.00;97847.23;2127412;84;21056;-58
2022/12/23 14:01:20;;;;;;;35.40;15.25;;;;;;;7.59;100.00;97855.64;2131165;83;21080;-59
2022/12/23 14:04:22;;;;;;;37.45;15.70;;;;;;;7.55;100.00;97848.94;2134296;83;21087;-58
2022/12/23 14:07:24;;;;;;;37.23;15.63;;;;;;;7.50;100.00;97849.69;2134415;83;21514;-58
2022/12/23 14:10:26;;;;;;;40.60;17.05;;;;;;;7.45;100.00;97844.29;2134359;83;21105;-59
2022/12/23 14:13:28;;;;;;;37.23;16.77;;;;;;;7.45;100.00;97849.98;2134389;83;21155;-58
2022/12/23 14:16:29;;;;;;;37.83;16.07;;;;;;;7.42;100.00;97842.36;2134419;83;21064;-58
2022/12/23 14:19:31;;;;;;;34.03;14.73;;;;;;;7.42;100.00;97851.48;2134109;83;21112;-58
2022/12/23 14:22:32;;;;;;;38.03;17.47;;;;;;;7.36;100.00;97852.72;2134496;83;21125;-58